sensor_id;sensor_type;location;lat;lon;timestamp;pressure;altitude;pressure_sealevel;temperature;humidity
62038;BME280;47991;42.974;12.082;2023-04-10T07:44:08;98208.52;;;16.18;36.77
62038;BME280;47991;42.974;12.082;2023-04-10T07:52:06;98213.27;;;14.31;39.89
62038;BME280;47991;42.974;12.082;2023-04-10T08:17:00;98231.96;;;13.47;41.08
62038;BME280;47991;42.974;12.082;2023-04-10T08:19:55;98235.63;;;13.09;41.80
62038;BME280;47991;42.974;12.082;2023-04-10T08:30:22;98245.84;;;13.06;42.40
62038;BME280;47991;42.974;12.082;2023-04-10T08:38:22;98242.44;;;13.07;42.20
62038;BME280;47991;42.974;12.082;2023-04-10T08:40:59;98242.34;;;13.10;41.98
62038;BME280;47991;42.974;12.082;2023-04-10T09:05:51;98250.42;;;13.91;40.23
62038;BME280;47991;42.974;12.082;2023-04-10T09:09:23;98261.46;;;14.01;40.55
62038;BME280;47991;42.974;12.082;2023-04-10T09:13:36;98253.40;;;14.13;40.30
62038;BME280;47991;42.974;12.082;2023-04-10T09:25:57;98255.67;;;13.50;41.09
62038;BME280;47991;42.974;12.082;2023-04-10T09:29:20;98243.70;;;13.42;40.97
62038;BME280;47991;42.974;12.082;2023-04-10T09:37:23;98239.10;;;13.99;39.82
62038;BME280;47991;42.974;12.082;2023-04-10T09:41:26;98249.55;;;13.90;39.66
62038;BME280;47991;42.974;12.082;2023-04-10T10:01:18;98248.30;;;13.12;40.41
62038;BME280;47991;42.974;12.082;2023-04-10T10:09:03;98233.99;;;13.98;39.95
62038;BME280;47991;42.974;12.082;2023-04-10T10:11:53;98234.73;;;14.58;40.09
62038;BME280;47991;42.974;12.082;2023-04-10T10:14:46;98228.89;;;15.05;39.35
62038;BME280;47991;42.974;12.082;2023-04-10T10:48:06;98244.06;;;13.90;41.21
62038;BME280;47991;42.974;12.082;2023-04-10T10:51:50;98237.39;;;13.77;40.60
62038;BME280;47991;42.974;12.082;2023-04-10T10:55:34;98238.01;;;14.36;39.35
62038;BME280;47991;42.974;12.082;2023-04-10T11:14:55;98219.70;;;14.89;38.28
62038;BME280;47991;42.974;12.082;2023-04-10T11:25:15;98213.06;;;14.99;37.17
62038;BME280;47991;42.974;12.082;2023-04-10T11:47:34;98195.59;;;15.53;37.36
62038;BME280;47991;42.974;12.082;2023-04-10T11:50:27;98187.65;;;15.55;37.16
62038;BME280;47991;42.974;12.082;2023-04-10T11:53:24;98193.72;;;15.68;36.70
62038;BME280;47991;42.974;12.082;2023-04-10T11:59:53;98190.13;;;15.47;36.84
62038;BME280;47991;42.974;12.082;2023-04-10T12:14:28;98182.79;;;14.86;36.80
62038;BME280;47991;42.974;12.082;2023-04-10T12:28:26;98187.45;;;15.03;37.11
62038;BME280;47991;42.974;12.082;2023-04-10T12:32:03;98179.38;;;15.31;37.68
62038;BME280;47991;42.974;12.082;2023-04-10T12:35:01;98165.55;;;15.68;36.26
62038;BME280;47991;42.974;12.082;2023-04-10T12:37:52;98172.17;;;15.46;37.21
62038;BME280;47991;42.974;12.082;2023-04-10T12:40:26;98170.68;;;16.03;37.25
62038;BME280;47991;42.974;12.082;2023-04-10T12:43:29;98163.66;;;16.36;36.82
62038;BME280;47991;42.974;12.082;2023-04-10T12:46:28;98160.45;;;15.88;36.49
62038;BME280;47991;42.974;12.082;2023-04-10T12:50:01;98165.20;;;15.68;35.61
62038;BME280;47991;42.974;12.082;2023-04-10T12:52:35;98164.19;;;15.23;35.66
62038;BME280;47991;42.974;12.082;2023-04-10T12:56:18;98157.98;;;14.79;35.67
62038;BME280;47991;42.974;12.082;2023-04-10T12:59:31;98162.58;;;14.27;36.11
62038;BME280;47991;42.974;12.082;2023-04-10T13:02:03;98159.80;;;14.44;36.43
62038;BME280;47991;42.974;12.082;2023-04-10T13:04:54;98160.20;;;14.81;37.81
62038;BME280;47991;42.974;12.082;2023-04-10T13:07:46;98154.85;;;15.73;36.25
62038;BME280;47991;42.974;12.082;2023-04-10T13:10:25;98146.79;;;16.46;35.84
62038;BME280;47991;42.974;12.082;2023-04-10T13:13:30;98139.78;;;16.82;34.80
62038;BME280;47991;42.974;12.082;2023-04-10T13:16:21;98138.59;;;15.90;34.22
62038;BME280;47991;42.974;12.082;2023-04-10T13:19:02;98134.16;;;16.02;34.78
62038;BME280;47991;42.974;12.082;2023-04-10T13:21:56;98129.60;;;15.80;35.96
62038;BME280;47991;42.974;12.082;2023-04-10T13:24:35;98124.09;;;16.16;35.71
62038;BME280;47991;42.974;12.082;2023-04-10T13:27:12;98118.73;;;16.58;34.53
62038;BME280;47991;42.974;12.082;2023-04-10T13:29:48;98118.70;;;16.32;33.77
62038;BME280;47991;42.974;12.082;2023-04-10T13:32:45;98118.29;;;15.48;34.53
62038;BME280;47991;42.974;12.082;2023-04-10T13:35:27;98124.50;;;15.91;34.42
62038;BME280;47991;42.974;12.082;2023-04-10T13:38:02;98126.29;;;15.61;34.38
62038;BME280;47991;42.974;12.082;2023-04-10T13:40:31;98122.84;;;15.50;34.75
62038;BME280;47991;42.974;12.082;2023-04-10T13:43:16;98119.73;;;16.06;35.10
62038;BME280;47991;42.974;12.082;2023-04-10T13:46:08;98120.35;;;16.16;34.27
62038;BME280;47991;42.974;12.082;2023-04-10T13:48:41;98117.52;;;15.99;35.71
62038;BME280;47991;42.974;12.082;2023-04-10T13:51:22;98115.13;;;16.17;34.23
62038;BME280;47991;42.974;12.082;2023-04-10T13:54:12;98111.63;;;16.27;33.72
62038;BME280;47991;42.974;12.082;2023-04-10T13:56:49;98110.00;;;16.35;35.32
62038;BME280;47991;42.974;12.082;2023-04-10T13:59:16;98109.26;;;16.74;34.49
62038;BME280;47991;42.974;12.082;2023-04-10T14:01:43;98103.65;;;16.95;33.53
62038;BME280;47991;42.974;12.082;2023-04-10T14:04:18;98103.36;;;16.90;32.83
62038;BME280;47991;42.974;12.082;2023-04-10T14:06:52;98101.59;;;17.11;33.70
62038;BME280;47991;42.974;12.082;2023-04-10T14:09:37;98100.57;;;16.88;33.68
62038;BME280;47991;42.974;12.082;2023-04-10T14:12:18;98093.11;;;16.53;32.93
62038;BME280;47991;42.974;12.082;2023-04-10T14:15:02;98094.81;;;15.68;33.08
62038;BME280;47991;42.974;12.082;2023-04-10T14:17:33;98092.38;;;15.87;34.37
62038;BME280;47991;42.974;12.082;2023-04-10T14:20:25;98092.95;;;15.82;34.41
62038;BME280;47991;42.974;12.082;2023-04-10T14:23:05;98094.24;;;15.39;34.25
62038;BME280;47991;42.974;12.082;2023-04-10T14:26:04;98095.44;;;15.61;35.80
62038;BME280;47991;42.974;12.082;2023-04-10T14:28:59;98097.20;;;15.87;35.29
62038;BME280;47991;42.974;12.082;2023-04-10T14:34:41;98101.59;;;16.04;33.79
62038;BME280;47991;42.974;12.082;2023-04-10T14:44:37;98095.96;;;17.70;32.90
62038;BME280;47991;42.974;12.082;2023-04-10T14:47:35;98087.15;;;17.32;32.67
62038;BME280;47991;42.974;12.082;2023-04-10T14:51:01;98081.52;;;17.01;33.01
62038;BME280;47991;42.974;12.082;2023-04-10T14:56:52;98082.92;;;16.76;33.37
62038;BME280;47991;42.974;12.082;2023-04-10T14:59:25;98089.34;;;16.76;33.38
62038;BME280;47991;42.974;12.082;2023-04-10T15:02:06;98092.06;;;16.79;33.52
62038;BME280;47991;42.974;12.082;2023-04-10T15:04:40;98098.04;;;16.69;33.62
62038;BME280;47991;42.974;12.082;2023-04-10T15:07:21;98093.19;;;16.55;33.35
62038;BME280;47991;42.974;12.082;2023-04-10T15:10:14;98099.98;;;16.40;33.22
62038;BME280;47991;42.974;12.082;2023-04-10T15:13:03;98099.48;;;16.47;32.94
62038;BME280;47991;42.974;12.082;2023-04-10T15:15:41;98098.31;;;16.49;33.52
62038;BME280;47991;42.974;12.082;2023-04-10T15:18:24;98101.96;;;16.55;32.80
62038;BME280;47991;42.974;12.082;2023-04-10T15:21:32;98093.96;;;16.38;32.85
62038;BME280;47991;42.974;12.082;2023-04-10T15:24:12;98089.87;;;16.35;33.01
62038;BME280;47991;42.974;12.082;2023-04-10T15:27:00;98087.50;;;16.28;32.85
62038;BME280;47991;42.974;12.082;2023-04-10T15:29:41;98094.89;;;16.22;33.22
62038;BME280;47991;42.974;12.082;2023-04-10T15:32:12;98096.16;;;16.22;33.34
62038;BME280;47991;42.974;12.082;2023-04-10T15:34:47;98098.64;;;16.23;33.12
62038;BME280;47991;42.974;12.082;2023-04-10T15:37:18;98100.41;;;16.19;32.96
62038;BME280;47991;42.974;12.082;2023-04-10T15:39:59;98107.00;;;16.15;33.32
62038;BME280;47991;42.974;12.082;2023-04-10T15:43:01;98109.64;;;16.16;33.10
62038;BME280;47991;42.974;12.082;2023-04-10T15:45:43;98114.12;;;16.15;32.43
62038;BME280;47991;42.974;12.082;2023-04-10T15:48:24;98112.27;;;16.09;32.91
62038;BME280;47991;42.974;12.082;2023-04-10T15:51:26;98116.05;;;16.12;32.91
62038;BME280;47991;42.974;12.082;2023-04-10T15:54:28;98113.06;;;15.95;32.49
62038;BME280;47991;42.974;12.082;2023-04-10T15:57:26;98113.48;;;15.94;32.46
62038;BME280;47991;42.974;12.082;2023-04-10T16:00:06;98111.79;;;15.92;32.17
62038;BME280;47991;42.974;12.082;2023-04-10T16:02:37;98108.34;;;16.01;32.21
62038;BME280;47991;42.974;12.082;2023-04-10T16:05:11;98105.08;;;16.06;32.09
62038;BME280;47991;42.974;12.082;2023-04-10T16:07:53;98107.13;;;16.08;32.33
62038;BME280;47991;42.974;12.082;2023-04-10T16:10:27;98103.41;;;16.19;32.20
62038;BME280;47991;42.974;12.082;2023-04-10T16:13:13;98103.09;;;16.30;32.38
62038;BME280;47991;42.974;12.082;2023-04-10T16:16:12;98106.81;;;16.27;32.28
62038;BME280;47991;42.974;12.082;2023-04-10T16:19:05;98104.73;;;16.34;31.52
62038;BME280;47991;42.974;12.082;2023-04-10T16:21:45;98101.81;;;16.38;31.93
62038;BME280;47991;42.974;12.082;2023-04-10T16:24:28;98102.94;;;16.30;32.58
62038;BME280;47991;42.974;12.082;2023-04-10T16:27:06;98102.25;;;16.41;32.86
62038;BME280;47991;42.974;12.082;2023-04-10T16:29:57;98098.02;;;16.40;31.60
62038;BME280;47991;42.974;12.082;2023-04-10T16:33:19;98091.48;;;16.19;30.99
62038;BME280;47991;42.974;12.082;2023-04-10T16:36:06;98097.33;;;16.12;31.16
62038;BME280;47991;42.974;12.082;2023-04-10T16:38:42;98094.81;;;15.68;31.58
62038;BME280;47991;42.974;12.082;2023-04-10T16:41:41;98100.80;;;15.53;31.88
62038;BME280;47991;42.974;12.082;2023-04-10T16:45:03;98090.80;;;15.40;31.58
62038;BME280;47991;42.974;12.082;2023-04-10T16:51:19;98089.21;;;14.93;31.86
62038;BME280;47991;42.974;12.082;2023-04-10T16:54:01;98088.90;;;14.92;32.05
62038;BME280;47991;42.974;12.082;2023-04-10T16:56:43;98086.86;;;14.72;32.66
62038;BME280;47991;42.974;12.082;2023-04-10T16:59:40;98085.34;;;14.37;32.66
62038;BME280;47991;42.974;12.082;2023-04-10T17:02:54;98082.44;;;14.24;33.01
62038;BME280;47991;42.974;12.082;2023-04-10T17:08:47;98079.48;;;14.04;33.38
62038;BME280;47991;42.974;12.082;2023-04-10T17:11:25;98079.35;;;14.03;33.49
62038;BME280;47991;42.974;12.082;2023-04-10T17:14:01;98085.31;;;13.96;33.96
62038;BME280;47991;42.974;12.082;2023-04-10T17:16:44;98085.13;;;13.96;33.66
62038;BME280;47991;42.974;12.082;2023-04-10T17:19:28;98090.98;;;13.92;33.53
62038;BME280;47991;42.974;12.082;2023-04-10T17:22:03;98094.30;;;13.88;33.50
62038;BME280;47991;42.974;12.082;2023-04-10T17:36:30;98113.30;;;13.26;34.00
62038;BME280;47991;42.974;12.082;2023-04-10T17:40:20;98117.52;;;13.12;34.24
62038;BME280;47991;42.974;12.082;2023-04-10T17:43:30;98115.34;;;12.97;34.34
62038;BME280;47991;42.974;12.082;2023-04-10T17:50:56;98124.52;;;12.70;34.59
62038;BME280;47991;42.974;12.082;2023-04-10T17:53:44;98122.85;;;12.61;34.63
62038;BME280;47991;42.974;12.082;2023-04-10T17:56:29;98129.41;;;12.49;34.84
62038;BME280;47991;42.974;12.082;2023-04-10T17:58:59;98136.08;;;12.21;35.27
62038;BME280;47991;42.974;12.082;2023-04-10T18:01:55;98132.48;;;11.98;36.59
62038;BME280;47991;42.974;12.082;2023-04-10T18:04:40;98130.45;;;11.75;37.28
62038;BME280;47991;42.974;12.082;2023-04-10T18:07:26;98134.68;;;11.62;37.98
62038;BME280;47991;42.974;12.082;2023-04-10T18:10:33;98141.16;;;11.44;39.72
62038;BME280;47991;42.974;12.082;2023-04-10T18:13:45;98142.44;;;11.29;41.62
62038;BME280;47991;42.974;12.082;2023-04-10T18:16:28;98142.00;;;11.18;42.09
62038;BME280;47991;42.974;12.082;2023-04-10T18:22:09;98148.66;;;10.99;43.82
62038;BME280;47991;42.974;12.082;2023-04-10T18:24:51;98152.57;;;10.91;45.22
62038;BME280;47991;42.974;12.082;2023-04-10T18:27:33;98154.51;;;10.84;45.04
62038;BME280;47991;42.974;12.082;2023-04-10T18:33:25;98159.55;;;10.71;45.60
62038;BME280;47991;42.974;12.082;2023-04-10T18:36:08;98164.65;;;10.65;45.67
62038;BME280;47991;42.974;12.082;2023-04-10T18:38:46;98166.52;;;10.52;45.99
62038;BME280;47991;42.974;12.082;2023-04-10T18:41:23;98170.50;;;10.39;46.64
62038;BME280;47991;42.974;12.082;2023-04-10T18:45:08;98173.91;;;10.27;46.76
62038;BME280;47991;42.974;12.082;2023-04-10T18:48:13;98180.81;;;10.09;47.13
62038;BME280;47991;42.974;12.082;2023-04-10T18:53:52;98184.31;;;10.01;47.12
62038;BME280;47991;42.974;12.082;2023-04-10T18:56:28;98188.26;;;9.99;47.61
62038;BME280;47991;42.974;12.082;2023-04-10T18:59:16;98193.09;;;9.95;47.74
62038;BME280;47991;42.974;12.082;2023-04-10T19:02:26;98195.55;;;9.96;47.48
62038;BME280;47991;42.974;12.082;2023-04-10T19:05:58;98200.40;;;9.91;47.85
62038;BME280;47991;42.974;12.082;2023-04-10T19:12:35;98203.86;;;9.76;47.75
62038;BME280;47991;42.974;12.082;2023-04-10T19:15:45;98206.06;;;9.71;47.95
62038;BME280;47991;42.974;12.082;2023-04-10T19:18:25;98206.80;;;9.59;48.67
62038;BME280;47991;42.974;12.082;2023-04-10T19:21:16;98200.15;;;9.57;47.84
62038;BME280;47991;42.974;12.082;2023-04-10T19:23:51;98200.37;;;9.54;48.18
62038;BME280;47991;42.974;12.082;2023-04-10T19:26:53;98200.85;;;9.47;48.14
62038;BME280;47991;42.974;12.082;2023-04-10T19:31:03;98201.09;;;9.42;48.25
62038;BME280;47991;42.974;12.082;2023-04-10T19:33:22;98207.54;;;9.36;47.69
62038;BME280;47991;42.974;12.082;2023-04-10T19:36:13;98206.03;;;9.32;47.65
62038;BME280;47991;42.974;12.082;2023-04-10T19:38:43;98203.95;;;9.18;48.45
62038;BME280;47991;42.974;12.082;2023-04-10T19:41:27;98202.91;;;9.06;48.61
62038;BME280;47991;42.974;12.082;2023-04-10T19:44:17;98203.16;;;9.01;48.82
62038;BME280;47991;42.974;12.082;2023-04-10T19:46:47;98212.93;;;8.95;48.55
62038;BME280;47991;42.974;12.082;2023-04-10T19:50:06;98213.06;;;8.99;47.80
62038;BME280;47991;42.974;12.082;2023-04-10T19:55:58;98215.55;;;8.98;48.66
62038;BME280;47991;42.974;12.082;2023-04-10T19:59:00;98217.75;;;8.92;49.05
62038;BME280;47991;42.974;12.082;2023-04-10T20:01:51;98213.66;;;8.82;49.02
62038;BME280;47991;42.974;12.082;2023-04-10T20:04:29;98214.85;;;8.73;48.84
62038;BME280;47991;42.974;12.082;2023-04-10T20:06:56;98215.77;;;8.70;49.03
62038;BME280;47991;42.974;12.082;2023-04-10T20:09:23;98219.23;;;8.73;48.37
62038;BME280;47991;42.974;12.082;2023-04-10T20:11:56;98218.79;;;8.81;48.03
62038;BME280;47991;42.974;12.082;2023-04-10T20:14:31;98223.91;;;8.81;48.60
62038;BME280;47991;42.974;12.082;2023-04-10T20:20:07;98221.85;;;8.76;48.03
62038;BME280;47991;42.974;12.082;2023-04-10T20:22:56;98219.73;;;8.77;47.73
62038;BME280;47991;42.974;12.082;2023-04-10T20:25:57;98225.25;;;8.73;48.60
62038;BME280;47991;42.974;12.082;2023-04-10T20:28:46;98230.23;;;8.69;47.81
62038;BME280;47991;42.974;12.082;2023-04-10T20:31:55;98232.78;;;8.63;47.87
62038;BME280;47991;42.974;12.082;2023-04-10T20:35:07;98229.97;;;8.62;47.88
62038;BME280;47991;42.974;12.082;2023-04-10T20:38:07;98231.73;;;8.62;48.55
62038;BME280;47991;42.974;12.082;2023-04-10T20:41:21;98232.72;;;8.38;50.78
62038;BME280;47991;42.974;12.082;2023-04-10T20:48:05;98235.31;;;8.27;49.19
62038;BME280;47991;42.974;12.082;2023-04-10T20:50:52;98229.89;;;8.22;49.41
62038;BME280;47991;42.974;12.082;2023-04-10T20:53:24;98233.51;;;8.15;50.57
62038;BME280;47991;42.974;12.082;2023-04-10T20:55:59;98231.52;;;8.03;50.41
62038;BME280;47991;42.974;12.082;2023-04-10T20:58:47;98226.59;;;7.85;50.22
62038;BME280;47991;42.974;12.082;2023-04-10T21:01:19;98231.84;;;7.53;51.31
62038;BME280;47991;42.974;12.082;2023-04-10T21:03:51;98228.04;;;7.21;52.47
62038;BME280;47991;42.974;12.082;2023-04-10T21:06:31;98227.20;;;6.88;51.76
62038;BME280;47991;42.974;12.082;2023-04-10T21:09:20;98226.55;;;6.81;51.30
62038;BME280;47991;42.974;12.082;2023-04-10T21:11:51;98224.64;;;6.78;51.06
62038;BME280;47991;42.974;12.082;2023-04-10T21:14:36;98222.36;;;6.77;51.70
62038;BME280;47991;42.974;12.082;2023-04-10T21:17:10;98216.13;;;6.60;54.60
62038;BME280;47991;42.974;12.082;2023-04-10T21:20:08;98222.60;;;6.28;56.22
62038;BME280;47991;42.974;12.082;2023-04-10T21:22:40;98225.84;;;6.02;53.18
62038;BME280;47991;42.974;12.082;2023-04-10T21:25:08;98232.37;;;5.66;58.88
62038;BME280;47991;42.974;12.082;2023-04-10T21:27:34;98233.80;;;5.57;56.38
62038;BME280;47991;42.974;12.082;2023-04-10T21:30:05;98235.90;;;5.55;56.62
62038;BME280;47991;42.974;12.082;2023-04-10T21:32:52;98238.37;;;5.41;57.07
62038;BME280;47991;42.974;12.082;2023-04-10T21:35:23;98241.17;;;5.26;56.40
62038;BME280;47991;42.974;12.082;2023-04-10T21:37:51;98243.44;;;5.15;56.80
62038;BME280;47991;42.974;12.082;2023-04-10T21:40:29;98242.20;;;5.12;55.22
62038;BME280;47991;42.974;12.082;2023-04-10T21:43:08;98249.92;;;5.24;56.47
62038;BME280;47991;42.974;12.082;2023-04-10T21:45:38;98252.20;;;5.18;56.93
62038;BME280;47991;42.974;12.082;2023-04-10T21:48:10;98252.02;;;5.12;55.77
62038;BME280;47991;42.974;12.082;2023-04-10T21:50:55;98248.67;;;5.02;56.17
62038;BME280;47991;42.974;12.082;2023-04-10T21:53:29;98245.16;;;4.95;56.79
62038;BME280;47991;42.974;12.082;2023-04-10T21:55:59;98245.50;;;4.93;56.21
62038;BME280;47991;42.974;12.082;2023-04-10T21:58:30;98242.71;;;4.89;57.18
62038;BME280;47991;42.974;12.082;2023-04-10T22:00:59;98239.54;;;4.87;56.48
62038;BME280;47991;42.974;12.082;2023-04-10T22:03:29;98238.67;;;4.87;56.48
62038;BME280;47991;42.974;12.082;2023-04-10T22:06:24;98237.11;;;4.94;56.59
62038;BME280;47991;42.974;12.082;2023-04-10T22:11:54;98226.94;;;4.91;59.28
62038;BME280;47991;42.974;12.082;2023-04-10T22:14:29;98232.35;;;4.82;58.10
62038;BME280;47991;42.974;12.082;2023-04-10T22:16:58;98241.10;;;4.76;56.94
62038;BME280;47991;42.974;12.082;2023-04-10T22:19:26;98240.21;;;4.70;57.53
62038;BME280;47991;42.974;12.082;2023-04-10T22:22:02;98242.30;;;4.72;57.13
62038;BME280;47991;42.974;12.082;2023-04-10T22:24:50;98239.64;;;4.55;59.87
62038;BME280;47991;42.974;12.082;2023-04-10T22:27:22;98240.77;;;4.27;58.73
62038;BME280;47991;42.974;12.082;2023-04-10T22:29:54;98241.93;;;4.15;59.54
62038;BME280;47991;42.974;12.082;2023-04-10T22:32:24;98241.33;;;4.01;58.88
62038;BME280;47991;42.974;12.082;2023-04-10T22:35:02;98241.83;;;3.96;60.46
62038;BME280;47991;42.974;12.082;2023-04-10T22:40:30;98253.08;;;3.78;59.15
62038;BME280;47991;42.974;12.082;2023-04-10T22:43:56;98260.49;;;3.61;61.43
62038;BME280;47991;42.974;12.082;2023-04-10T22:46:28;98260.98;;;3.55;61.52
62038;BME280;47991;42.974;12.082;2023-04-10T22:48:56;98260.30;;;3.57;61.66
62038;BME280;47991;42.974;12.082;2023-04-10T22:51:34;98262.77;;;3.63;62.88
62038;BME280;47991;42.974;12.082;2023-04-10T22:54:01;98264.58;;;3.70;61.17
62038;BME280;47991;42.974;12.082;2023-04-10T22:56:53;98267.18;;;3.94;60.57
62038;BME280;47991;42.974;12.082;2023-04-10T22:59:26;98271.64;;;4.09;60.55
62038;BME280;47991;42.974;12.082;2023-04-10T23:01:57;98277.44;;;4.12;60.94
62038;BME280;47991;42.974;12.082;2023-04-10T23:04:50;98282.11;;;4.04;60.97
62038;BME280;47991;42.974;12.082;2023-04-10T23:07:23;98284.29;;;3.89;61.45
62038;BME280;47991;42.974;12.082;2023-04-10T23:10:01;98286.81;;;3.74;62.05
62038;BME280;47991;42.974;12.082;2023-04-10T23:12:45;98287.64;;;3.68;62.46
62038;BME280;47991;42.974;12.082;2023-04-10T23:15:38;98286.27;;;3.70;60.53
62038;BME280;47991;42.974;12.082;2023-04-10T23:18:08;98284.50;;;3.69;62.30
62038;BME280;47991;42.974;12.082;2023-04-10T23:20:43;98275.17;;;3.60;63.45
62038;BME280;47991;42.974;12.082;2023-04-10T23:23:09;98262.56;;;3.57;62.79
62038;BME280;47991;42.974;12.082;2023-04-10T23:25:39;98259.02;;;3.51;63.22
62038;BME280;47991;42.974;12.082;2023-04-10T23:28:10;98255.84;;;3.46;63.99
62038;BME280;47991;42.974;12.082;2023-04-10T23:30:44;98253.90;;;3.44;62.38
62038;BME280;47991;42.974;12.082;2023-04-10T23:33:15;98258.30;;;3.48;62.29
62038;BME280;47991;42.974;12.082;2023-04-10T23:35:50;98257.59;;;3.48;61.54
62038;BME280;47991;42.974;12.082;2023-04-10T23:38:18;98258.97;;;3.44;61.73
62038;BME280;47991;42.974;12.082;2023-04-10T23:40:48;98257.19;;;3.39;62.83
62038;BME280;47991;42.974;12.082;2023-04-10T23:43:18;98253.80;;;3.32;61.99
62038;BME280;47991;42.974;12.082;2023-04-10T23:45:50;98251.59;;;3.20;61.89
62038;BME280;47991;42.974;12.082;2023-04-10T23:48:21;98248.81;;;3.01;64.20
62038;BME280;47991;42.974;12.082;2023-04-10T23:51:09;98243.98;;;2.89;64.53
62038;BME280;47991;42.974;12.082;2023-04-10T23:53:44;98241.54;;;2.89;64.18
62038;BME280;47991;42.974;12.082;2023-04-10T23:56:20;98241.16;;;2.86;64.34
62038;BME280;47991;42.974;12.082;2023-04-10T23:59:00;98233.98;;;2.85;65.00
